Magnolia, Minnesota
Current Conditions -  °F | °C
As of 3:34 PM on Monday 24 Nov 2014 (Local Time) from KLYV Reporting Station
Scattered Clouds Scattered Clouds  
Wind Chill:   Ceiling: Unl
Heat Index: 23°   Visibility: 10mi
Dew Point: 14°   Wind: 29mph
Humidity: 68%   Direction: 330°NNW
Pressure: 29.78"   Gusts: 36mph
Location:  43.65°N, 96.08°W
Report Text: KLYV 242134Z AUTO 33025G31KT 10SM SCT024 M05/M10 A2978 RMK AO2
Loading
Personal Weather Stations






























Interactive Weather Map New forecast layout! Learn more

10-Day Weather Forecast

Advertisements
Track Severe Weather on mobile